Time;durP1;ratioP1;P1;durP2;ratioP2;P2;SDS_P1;SDS_P2;PMS_P1;PMS_P2;Temp;Humidity;BMP_temperature;BMP_pressure;BME280_temperature;BME280_humidity;BME280_pressure;Samples;Min_cycle;Max_cycle;Signal;HPM_P1;HPM_P2
2024/01/05 00:01:38;;;;;;;1.00;1.00;;;-14.40;99.90;;;;;;5011045;28;20619;-68
2024/01/05 00:04:04;;;;;;;0.90;0.90;;;-14.40;99.90;;;;;;5011149;28;20682;-68
2024/01/05 00:06:30;;;;;;;0.90;0.90;;;-14.40;99.90;;;;;;5010901;28;20195;-68
2024/01/05 00:08:56;;;;;;;1.00;1.00;;;-14.40;99.90;;;;;;5009765;28;20293;-69
2024/01/05 00:11:22;;;;;;;0.90;0.90;;;-14.40;99.90;;;;;;5010913;28;20224;-69
2024/01/05 00:13:48;;;;;;;0.90;0.90;;;-14.50;99.90;;;;;;5010133;28;20226;-68
2024/01/05 00:16:21;;;;;;;0.90;0.90;;;-14.50;99.90;;;;;;5010805;28;20631;-69
2024/01/05 00:18:47;;;;;;;0.90;0.90;;;-14.50;99.90;;;;;;5009739;28;20199;-69
2024/01/05 00:21:23;;;;;;;1.00;1.00;;;-14.50;99.90;;;;;;5007501;28;20202;-68
2024/01/05 00:23:50;;;;;;;0.90;0.90;;;-14.60;99.90;;;;;;4991359;28;20319;-69
2024/01/05 00:26:16;;;;;;;1.00;1.00;;;-14.60;99.90;;;;;;4991620;28;20279;-69
2024/01/05 00:28:43;;;;;;;0.90;0.90;;;-14.60;99.90;;;;;;4991173;28;20198;-69
2024/01/05 00:31:16;;;;;;;0.90;0.90;;;-14.70;99.90;;;;;;4991326;28;20219;-70
2024/01/05 00:33:42;;;;;;;0.90;0.90;;;-14.80;99.90;;;;;;4991199;28;20652;-69
2024/01/05 00:36:09;;;;;;;0.90;0.90;;;-14.80;99.90;;;;;;4989854;28;20414;-70
2024/01/05 00:38:35;;;;;;;0.80;0.80;;;-14.80;99.90;;;;;;4991065;28;20223;-68
2024/01/05 00:41:02;;;;;;;0.90;0.90;;;-14.80;99.90;;;;;;4992619;28;20286;-69
2024/01/05 00:43:28;;;;;;;0.97;0.97;;;-14.80;99.90;;;;;;5005593;28;20194;-69
2024/01/05 00:45:54;;;;;;;0.90;0.90;;;-14.80;99.90;;;;;;5014856;28;20225;-70
2024/01/05 00:48:20;;;;;;;0.80;0.80;;;-14.80;99.90;;;;;;5013192;28;20757;-69
2024/01/05 00:50:45;;;;;;;0.93;0.93;;;-14.80;99.90;;;;;;5006686;28;20198;-68
2024/01/05 00:53:11;;;;;;;0.80;0.80;;;-14.80;99.90;;;;;;5014590;28;20190;-69
2024/01/05 00:55:37;;;;;;;1.00;1.00;;;-14.80;99.90;;;;;;5014327;28;20206;-69
2024/01/05 00:58:03;;;;;;;0.90;0.90;;;-14.80;99.90;;;;;;5014633;28;20202;-69
2024/01/05 01:00:29;;;;;;;0.90;0.90;;;-14.80;99.90;;;;;;5014319;28;20191;-70
2024/01/05 01:02:54;;;;;;;0.90;0.90;;;-14.80;99.90;;;;;;5014439;28;20190;-70
2024/01/05 01:05:21;;;;;;;0.90;0.90;;;-14.80;99.90;;;;;;5014311;28;20563;-69
2024/01/05 01:07:47;;;;;;;0.90;0.90;;;-14.80;99.90;;;;;;5014373;28;20191;-69
2024/01/05 01:10:13;;;;;;;0.90;0.90;;;-14.90;99.90;;;;;;5014353;28;20210;-69
2024/01/05 01:12:39;;;;;;;1.00;1.00;;;-14.90;99.90;;;;;;5014083;28;20195;-70
2024/01/05 01:15:06;;;;;;;0.93;0.93;;;-14.90;99.90;;;;;;5014027;28;20191;-69
2024/01/05 01:17:32;;;;;;;0.90;0.90;;;-15.00;99.90;;;;;;5014601;28;20211;-70
2024/01/05 01:19:58;;;;;;;1.00;1.00;;;-15.00;99.90;;;;;;4997938;28;20544;-69
2024/01/05 01:22:23;;;;;;;0.90;0.90;;;-15.00;99.90;;;;;;5014158;28;20199;-69
2024/01/05 01:24:49;;;;;;;0.90;0.90;;;-15.00;99.90;;;;;;5014805;28;20273;-69
2024/01/05 01:27:18;;;;;;;0.90;0.90;;;-15.00;99.90;;;;;;5014356;28;20199;-68
2024/01/05 01:29:43;;;;;;;0.90;0.90;;;-15.00;99.90;;;;;;5014290;28;20195;-69
2024/01/05 01:32:09;;;;;;;0.90;0.90;;;-15.00;99.90;;;;;;5013493;28;20202;-68
2024/01/05 01:34:44;;;;;;;1.00;1.00;;;-15.00;99.90;;;;;;4987530;28;20282;-69
2024/01/05 01:37:10;;;;;;;0.90;0.90;;;-15.00;99.90;;;;;;4994167;28;20266;-69
2024/01/05 01:39:36;;;;;;;1.00;1.00;;;-15.00;99.90;;;;;;4992549;28;20731;-69
2024/01/05 01:42:02;;;;;;;0.90;0.90;;;-15.00;99.90;;;;;;4994576;28;20699;-69
2024/01/05 01:44:29;;;;;;;1.30;1.27;;;-15.10;99.90;;;;;;4993844;28;20219;-69
2024/01/05 01:46:56;;;;;;;1.00;1.00;;;-15.10;99.90;;;;;;4994075;28;20685;-69
2024/01/05 01:49:23;;;;;;;0.90;0.90;;;-15.10;99.90;;;;;;4993815;28;20226;-69
2024/01/05 01:51:49;;;;;;;0.83;0.83;;;-15.20;99.90;;;;;;4992864;28;20626;-69
2024/01/05 01:54:16;;;;;;;0.90;0.90;;;-15.20;99.90;;;;;;4993896;28;20566;-69
2024/01/05 01:56:44;;;;;;;0.97;0.97;;;-15.30;99.90;;;;;;4993929;28;20330;-70
2024/01/05 01:59:10;;;;;;;1.00;1.00;;;-15.30;99.90;;;;;;4994294;28;20188;-69
2024/01/05 02:01:36;;;;;;;1.00;1.00;;;-15.30;99.90;;;;;;4993682;28;20199;-70
2024/01/05 02:04:03;;;;;;;0.90;0.90;;;-15.30;99.90;;;;;;4993779;28;20199;-69
2024/01/05 02:06:29;;;;;;;1.00;1.00;;;-15.40;99.90;;;;;;4993738;28;20199;-69
2024/01/05 02:08:56;;;;;;;1.00;1.00;;;-15.40;99.90;;;;;;4993764;28;20204;-69
2024/01/05 02:11:21;;;;;;;0.90;0.90;;;-15.40;99.90;;;;;;4993252;28;20608;-68
2024/01/05 02:13:50;;;;;;;1.00;1.00;;;-15.40;99.90;;;;;;4993328;28;20207;-69
2024/01/05 02:16:16;;;;;;;0.90;0.90;;;-15.40;99.90;;;;;;4993075;28;20678;-69
2024/01/05 02:18:41;;;;;;;0.90;0.90;;;-15.50;99.90;;;;;;4992890;28;20195;-68
2024/01/05 02:21:11;;;;;;;1.00;1.00;;;-15.50;99.90;;;;;;4993421;28;20198;-68
2024/01/05 02:23:37;;;;;;;1.00;1.00;;;-15.50;99.90;;;;;;4993314;28;20285;-69
2024/01/05 02:26:03;;;;;;;0.90;0.90;;;-15.50;99.90;;;;;;4993218;28;20196;-69
2024/01/05 02:28:28;;;;;;;0.90;0.90;;;-15.50;99.90;;;;;;4992887;28;20195;-69
2024/01/05 02:30:55;;;;;;;4.33;2.70;;;-15.50;99.90;;;;;;4992341;28;20253;-69
2024/01/05 02:33:21;;;;;;;0.90;0.90;;;-15.50;99.90;;;;;;4993168;28;20202;-69
2024/01/05 02:35:47;;;;;;;0.90;0.90;;;-15.50;99.90;;;;;;5000821;28;20231;-70
2024/01/05 02:38:13;;;;;;;1.00;1.00;;;-15.50;99.90;;;;;;4993205;28;20215;-70
2024/01/05 02:40:38;;;;;;;0.90;0.90;;;-15.50;99.90;;;;;;4993045;28;20195;-70
2024/01/05 02:43:04;;;;;;;0.93;0.93;;;-15.50;99.90;;;;;;4993068;28;20196;-70
2024/01/05 02:45:30;;;;;;;1.00;1.00;;;-15.50;99.90;;;;;;4975251;28;20195;-69
2024/01/05 02:47:56;;;;;;;1.00;1.00;;;-15.50;99.90;;;;;;4991504;28;20698;-69
2024/01/05 02:50:22;;;;;;;0.90;0.90;;;-15.50;99.90;;;;;;4991422;28;20199;-69
2024/01/05 02:52:47;;;;;;;1.00;1.00;;;-15.60;99.90;;;;;;4992821;28;20646;-70
2024/01/05 02:55:13;;;;;;;0.90;0.90;;;-15.60;99.90;;;;;;4992687;28;20197;-69
2024/01/05 02:57:41;;;;;;;0.90;0.90;;;-15.60;99.90;;;;;;4992379;28;20242;-70
2024/01/05 03:00:07;;;;;;;1.00;1.00;;;-15.60;99.90;;;;;;4992676;28;20192;-69
2024/01/05 03:02:32;;;;;;;0.90;0.90;;;-15.60;99.90;;;;;;4992249;28;20195;-69
2024/01/05 03:04:59;;;;;;;0.90;0.90;;;-15.50;99.90;;;;;;4992498;28;20199;-69
2024/01/05 03:07:25;;;;;;;0.80;0.80;;;-15.50;99.90;;;;;;4992348;28;20207;-69
2024/01/05 03:09:51;;;;;;;1.67;1.57;;;-15.60;99.90;;;;;;4992493;28;20207;-69
2024/01/05 03:12:17;;;;;;;1.10;1.07;;;-15.50;99.90;;;;;;4992322;28;20286;-69
2024/01/05 03:14:43;;;;;;;1.00;1.00;;;-15.60;99.90;;;;;;4992322;28;20696;-69
2024/01/05 03:17:09;;;;;;;1.00;1.00;;;-15.60;99.90;;;;;;4990689;28;20294;-69
2024/01/05 03:19:34;;;;;;;0.80;0.80;;;-15.60;99.90;;;;;;4990857;28;20192;-69
2024/01/05 03:22:00;;;;;;;0.90;0.90;;;-15.60;99.90;;;;;;4992281;28;20200;-69
2024/01/05 03:24:26;;;;;;;0.80;0.80;;;-15.70;99.90;;;;;;4992073;28;20212;-69
2024/01/05 03:26:51;;;;;;;0.80;0.80;;;-15.70;99.90;;;;;;4992126;28;20278;-69
2024/01/05 03:29:17;;;;;;;0.90;0.90;;;-15.70;99.90;;;;;;4992108;28;20215;-69
2024/01/05 03:31:44;;;;;;;0.90;0.90;;;-15.70;99.90;;;;;;4991751;28;20203;-69
2024/01/05 03:34:10;;;;;;;0.90;0.90;;;-15.70;99.90;;;;;;4992122;28;20238;-70
2024/01/05 03:36:36;;;;;;;0.90;0.90;;;-15.70;99.90;;;;;;4991710;28;20310;-69
2024/01/05 03:39:02;;;;;;;0.90;0.90;;;-15.70;99.90;;;;;;4974473;28;20282;-69
2024/01/05 03:41:28;;;;;;;0.90;0.90;;;-15.70;99.90;;;;;;4991648;28;20192;-69
2024/01/05 03:43:54;;;;;;;1.00;1.00;;;-15.80;99.90;;;;;;5011436;28;20661;-69
2024/01/05 03:46:20;;;;;;;0.90;0.90;;;-15.80;99.90;;;;;;5011401;28;20633;-67
2024/01/05 03:48:46;;;;;;;0.90;0.90;;;-15.80;99.90;;;;;;5011548;28;20203;-67
2024/01/05 03:51:11;;;;;;;1.00;1.00;;;-15.80;99.90;;;;;;5011348;28;20199;-67
2024/01/05 03:53:37;;;;;;;0.90;0.90;;;-15.90;99.90;;;;;;5011223;28;20202;-67
2024/01/05 03:56:03;;;;;;;0.90;0.90;;;-15.80;99.90;;;;;;5011232;28;20218;-67
2024/01/05 03:58:29;;;;;;;1.00;1.00;;;-15.80;99.90;;;;;;5011142;28;20187;-67
2024/01/05 04:00:55;;;;;;;1.00;1.00;;;-15.80;99.90;;;;;;5004392;28;20215;-67
2024/01/05 04:03:21;;;;;;;0.90;0.90;;;-15.80;99.90;;;;;;5010054;28;20183;-67
2024/01/05 04:05:47;;;;;;;1.00;1.00;;;-15.80;99.90;;;;;;5030948;28;20205;-68
2024/01/05 04:08:13;;;;;;;0.90;0.90;;;-15.90;99.90;;;;;;5030944;28;20194;-68
2024/01/05 04:10:39;;;;;;;0.90;0.90;;;-15.90;99.90;;;;;;5021358;28;20214;-68
2024/01/05 04:13:05;;;;;;;0.90;0.90;;;-15.90;99.90;;;;;;5011274;28;20182;-67
2024/01/05 04:15:38;;;;;;;0.90;0.90;;;-15.90;99.90;;;;;;5009978;28;20654;-68
2024/01/05 04:18:04;;;;;;;0.90;0.90;;;-15.90;99.90;;;;;;5011048;28;20424;-67
2024/01/05 04:20:30;;;;;;;0.90;0.90;;;-15.90;99.90;;;;;;5010874;28;20226;-68
2024/01/05 04:22:56;;;;;;;0.90;0.90;;;-15.90;99.90;;;;;;5010869;28;20215;-68
2024/01/05 04:25:22;;;;;;;1.00;1.00;;;-15.90;99.90;;;;;;5010816;28;20195;-68
2024/01/05 04:27:48;;;;;;;1.00;1.00;;;-15.90;99.90;;;;;;5010787;28;20297;-67
2024/01/05 04:30:13;;;;;;;0.90;0.90;;;-15.90;99.90;;;;;;5010926;28;20693;-67
2024/01/05 04:32:39;;;;;;;0.90;0.90;;;-15.90;99.90;;;;;;5010721;28;20195;-68
2024/01/05 04:35:05;;;;;;;0.90;0.90;;;-15.90;99.90;;;;;;5010639;28;20714;-67
2024/01/05 04:37:31;;;;;;;0.90;0.90;;;-15.90;99.90;;;;;;5010680;28;20222;-68
2024/01/05 04:39:56;;;;;;;0.90;0.90;;;-16.00;99.90;;;;;;5010943;28;20194;-67
2024/01/05 04:42:22;;;;;;;1.00;1.00;;;-16.00;99.90;;;;;;5010385;28;20193;-67
2024/01/05 04:44:49;;;;;;;9.20;5.00;;;-16.00;99.90;;;;;;5010817;28;20202;-67
2024/01/05 04:47:15;;;;;;;0.90;0.90;;;-16.00;99.90;;;;;;5010804;28;20226;-68
2024/01/05 04:49:41;;;;;;;0.90;0.90;;;-16.00;99.90;;;;;;5010575;28;20195;-67
2024/01/05 04:52:07;;;;;;;0.90;0.90;;;-16.00;99.90;;;;;;5010692;28;20195;-69
2024/01/05 04:54:33;;;;;;;0.93;0.93;;;-16.10;99.90;;;;;;5010476;28;20190;-67
2024/01/05 04:56:58;;;;;;;0.90;0.90;;;-16.10;99.90;;;;;;5009444;28;20223;-68
2024/01/05 04:59:24;;;;;;;0.90;0.90;;;-16.10;99.90;;;;;;5010484;28;20218;-68
2024/01/05 05:01:50;;;;;;;0.90;0.90;;;-16.10;99.90;;;;;;5010737;28;20218;-69
2024/01/05 05:04:17;;;;;;;0.90;0.90;;;-16.10;99.90;;;;;;5009188;28;20286;-68
2024/01/05 05:06:44;;;;;;;0.90;0.90;;;-16.10;99.90;;;;;;5008935;28;20202;-68
2024/01/05 05:09:10;;;;;;;0.97;0.97;;;-16.10;99.90;;;;;;5009178;28;20199;-69
2024/01/05 05:11:38;;;;;;;0.90;0.90;;;-16.10;99.90;;;;;;5010392;28;20227;-68
2024/01/05 05:14:04;;;;;;;0.90;0.90;;;-16.10;99.90;;;;;;5010488;28;20596;-68
2024/01/05 05:16:29;;;;;;;0.90;0.90;;;-16.00;99.90;;;;;;5010259;28;20203;-69
2024/01/05 05:18:55;;;;;;;1.00;1.00;;;-16.10;99.90;;;;;;5010486;28;20195;-69
2024/01/05 05:21:20;;;;;;;0.90;0.90;;;-16.20;99.90;;;;;;5010332;28;20195;-68
2024/01/05 05:23:46;;;;;;;0.90;0.90;;;-16.10;99.90;;;;;;5010367;28;20205;-68
2024/01/05 05:26:12;;;;;;;0.90;0.90;;;-16.20;99.90;;;;;;5010132;28;20202;-69
2024/01/05 05:28:37;;;;;;;1.00;1.00;;;-16.30;99.90;;;;;;5013857;28;20603;-68
2024/01/05 05:31:03;;;;;;;0.90;0.90;;;-16.30;99.90;;;;;;5014076;28;20246;-69
2024/01/05 05:33:29;;;;;;;0.90;0.90;;;-16.30;99.90;;;;;;5014107;28;20535;-69
2024/01/05 05:35:55;;;;;;;0.80;0.80;;;-16.20;99.90;;;;;;5013612;28;20594;-68
2024/01/05 05:38:20;;;;;;;0.90;0.90;;;-16.30;99.90;;;;;;5013470;28;20626;-68
2024/01/05 05:40:46;;;;;;;0.90;0.90;;;-16.30;99.90;;;;;;5013642;28;20195;-68
2024/01/05 05:43:12;;;;;;;0.90;0.90;;;-16.20;99.90;;;;;;5013825;28;20195;-68
2024/01/05 05:45:37;;;;;;;0.90;0.90;;;-16.20;99.90;;;;;;5012332;28;20682;-68
2024/01/05 05:48:04;;;;;;;0.80;0.80;;;-16.20;99.90;;;;;;5013739;28;20257;-68
2024/01/05 05:50:30;;;;;;;0.90;0.90;;;-16.20;99.90;;;;;;5013331;28;20581;-68
2024/01/05 05:52:55;;;;;;;0.80;0.80;;;-16.20;99.90;;;;;;5013473;28;20202;-69
2024/01/05 05:55:21;;;;;;;0.90;0.90;;;-16.20;99.90;;;;;;5013301;28;20197;-68
2024/01/05 05:57:47;;;;;;;1.00;1.00;;;-16.20;99.90;;;;;;5013335;28;20573;-68
2024/01/05 06:00:13;;;;;;;1.07;1.07;;;-16.20;99.90;;;;;;5013521;28;20190;-68
2024/01/05 06:02:39;;;;;;;0.90;0.90;;;-16.20;99.90;;;;;;5013182;28;20194;-69
2024/01/05 06:05:05;;;;;;;0.90;0.90;;;-16.10;99.90;;;;;;5013500;28;20262;-68
2024/01/05 06:07:31;;;;;;;0.90;0.90;;;-16.10;99.90;;;;;;5013240;28;20191;-67
2024/01/05 06:09:58;;;;;;;0.90;0.90;;;-16.00;99.90;;;;;;5013270;28;20654;-68
2024/01/05 06:12:24;;;;;;;0.90;0.90;;;-16.10;99.90;;;;;;5013299;28;20198;-69
2024/01/05 06:14:50;;;;;;;0.90;0.90;;;-16.10;99.90;;;;;;5012894;28;20281;-68
2024/01/05 06:17:18;;;;;;;0.90;0.90;;;-16.10;99.90;;;;;;5013327;28;20202;-68
2024/01/05 06:19:44;;;;;;;1.00;1.00;;;-16.20;99.90;;;;;;5012884;28;20685;-68
2024/01/05 06:22:10;;;;;;;0.90;0.90;;;-16.20;99.90;;;;;;5012908;28;20199;-68
2024/01/05 06:24:35;;;;;;;0.90;0.90;;;-16.20;99.90;;;;;;5012864;28;20237;-68
2024/01/05 06:27:01;;;;;;;0.80;0.80;;;-16.20;99.90;;;;;;5012901;28;20195;-69
2024/01/05 06:29:27;;;;;;;0.90;0.90;;;-16.20;99.90;;;;;;5012581;28;20195;-68
2024/01/05 06:31:53;;;;;;;1.00;1.00;;;-16.20;99.90;;;;;;5012799;28;20199;-69
2024/01/05 06:34:18;;;;;;;0.90;0.90;;;-16.10;99.90;;;;;;5012263;28;20231;-68
2024/01/05 06:36:44;;;;;;;0.90;0.90;;;-16.00;99.90;;;;;;5011422;28;20226;-68
2024/01/05 06:39:10;;;;;;;0.90;0.90;;;-16.10;99.90;;;;;;5012060;28;20186;-68
2024/01/05 06:41:36;;;;;;;0.90;0.90;;;-16.00;99.90;;;;;;5012519;28;20187;-68
2024/01/05 06:44:02;;;;;;;1.00;1.00;;;-15.90;99.90;;;;;;5012680;28;20245;-69
2024/01/05 06:46:28;;;;;;;1.00;1.00;;;-15.90;99.90;;;;;;5012516;28;20194;-68
2024/01/05 06:48:55;;;;;;;0.90;0.90;;;-15.90;99.90;;;;;;5012487;28;20203;-68
2024/01/05 06:51:23;;;;;;;1.00;1.00;;;-15.80;99.90;;;;;;5012222;28;20195;-68
2024/01/05 06:53:49;;;;;;;0.90;0.90;;;-15.80;99.90;;;;;;5012184;28;20202;-68
2024/01/05 06:56:15;;;;;;;0.97;0.97;;;-15.80;99.90;;;;;;5012150;28;20249;-68
2024/01/05 06:58:40;;;;;;;0.90;0.90;;;-15.80;99.90;;;;;;5011506;28;20241;-68
2024/01/05 07:01:06;;;;;;;1.00;1.00;;;-15.80;99.90;;;;;;4994637;28;20191;-69
2024/01/05 07:03:32;;;;;;;0.90;0.90;;;-15.80;99.90;;;;;;5012032;28;20209;-68
2024/01/05 07:05:58;;;;;;;0.90;0.90;;;-15.90;99.90;;;;;;5012138;28;20223;-69
2024/01/05 07:08:24;;;;;;;0.90;0.90;;;-15.80;99.90;;;;;;5012050;28;20187;-68
2024/01/05 07:10:49;;;;;;;0.87;0.87;;;-15.80;99.90;;;;;;5012036;28;20683;-68
2024/01/05 07:13:15;;;;;;;0.97;0.97;;;-15.80;99.90;;;;;;5011929;28;20199;-68
2024/01/05 07:15:41;;;;;;;1.10;1.10;;;-15.80;99.90;;;;;;5011647;28;20198;-68
2024/01/05 07:18:07;;;;;;;1.00;1.00;;;-15.80;99.90;;;;;;5011759;28;20214;-68
2024/01/05 07:20:33;;;;;;;1.00;1.00;;;-15.90;99.90;;;;;;4994065;28;20191;-68
2024/01/05 07:22:59;;;;;;;0.90;0.90;;;-15.90;99.90;;;;;;5011938;28;20724;-68
2024/01/05 07:25:25;;;;;;;0.90;0.90;;;-15.80;99.90;;;;;;5011730;28;20562;-68
2024/01/05 07:27:50;;;;;;;0.90;0.90;;;-15.80;99.90;;;;;;5012189;28;20191;-68
2024/01/05 07:30:16;;;;;;;0.90;0.90;;;-15.70;99.90;;;;;;5011735;28;20289;-68
2024/01/05 07:32:42;;;;;;;0.90;0.90;;;-15.60;99.90;;;;;;5011634;28;20286;-69
2024/01/05 07:35:10;;;;;;;0.90;0.90;;;-15.70;99.90;;;;;;5011558;28;20305;-68
2024/01/05 07:37:37;;;;;;;0.90;0.90;;;-15.60;99.90;;;;;;5011301;28;20611;-68
2024/01/05 07:40:04;;;;;;;0.90;0.90;;;-15.60;99.90;;;;;;5011624;28;20662;-68
2024/01/05 07:42:30;;;;;;;0.90;0.90;;;-15.60;99.90;;;;;;5011470;28;20655;-68
2024/01/05 07:44:57;;;;;;;1.00;1.00;;;-15.60;99.90;;;;;;5011698;28;20191;-67
2024/01/05 07:47:23;;;;;;;1.00;1.00;;;-15.70;99.90;;;;;;5011323;28;20654;-68
2024/01/05 07:49:49;;;;;;;1.00;1.00;;;-15.70;99.90;;;;;;5010587;28;20191;-68
2024/01/05 07:52:16;;;;;;;0.90;0.90;;;-15.70;99.90;;;;;;5010073;28;20199;-68
2024/01/05 07:54:43;;;;;;;1.00;1.00;;;-15.70;99.90;;;;;;5011029;28;20647;-69
2024/01/05 07:57:08;;;;;;;0.90;0.90;;;-15.70;99.90;;;;;;5011781;28;20285;-68
2024/01/05 07:59:34;;;;;;;0.90;0.90;;;-15.70;99.90;;;;;;5011260;28;20278;-68
2024/01/05 08:02:00;;;;;;;0.93;0.93;;;-15.80;99.90;;;;;;5011327;28;20191;-70
2024/01/05 08:04:25;;;;;;;1.47;1.40;;;-15.70;99.90;;;;;;5011046;28;20659;-68
2024/01/05 08:06:51;;;;;;;0.97;0.97;;;-15.80;99.90;;;;;;5011291;28;20203;-70
2024/01/05 08:09:17;;;;;;;0.90;0.90;;;-15.80;99.90;;;;;;5011056;28;20388;-70
2024/01/05 08:11:44;;;;;;;0.90;0.90;;;-15.80;99.90;;;;;;5011249;28;20286;-70
2024/01/05 08:14:09;;;;;;;1.20;1.20;;;-15.80;99.90;;;;;;5010773;28;20194;-71
2024/01/05 08:16:35;;;;;;;2.80;2.60;;;-15.90;99.90;;;;;;5010647;28;20728;-70
2024/01/05 08:19:01;;;;;;;0.90;0.90;;;-15.80;99.90;;;;;;5011157;28;20337;-69
2024/01/05 08:21:27;;;;;;;0.90;0.90;;;-15.90;99.90;;;;;;5019810;28;20630;-71
2024/01/05 08:23:53;;;;;;;3.53;2.60;;;-16.00;99.90;;;;;;5029537;28;20198;-71
2024/01/05 08:26:18;;;;;;;1.00;1.00;;;-16.00;99.90;;;;;;5030577;28;20557;-67
2024/01/05 08:28:45;;;;;;;0.90;0.90;;;-16.10;99.90;;;;;;5030794;28;20676;-67
2024/01/05 08:31:10;;;;;;;0.90;0.90;;;-16.00;99.90;;;;;;5030811;28;20673;-67
2024/01/05 08:33:36;;;;;;;1.00;1.00;;;-16.00;99.90;;;;;;5030228;28;20229;-67
2024/01/05 08:36:02;;;;;;;1.00;1.00;;;-16.10;99.90;;;;;;5030527;28;20217;-67
2024/01/05 08:38:28;;;;;;;1.20;1.20;;;-16.10;99.90;;;;;;5030501;28;20665;-67
2024/01/05 08:40:53;;;;;;;0.80;0.80;;;-16.10;99.90;;;;;;5030619;28;20186;-68
2024/01/05 08:43:19;;;;;;;0.97;0.97;;;-16.20;99.90;;;;;;5012543;28;20222;-69
2024/01/05 08:45:48;;;;;;;0.90;0.90;;;-16.20;99.90;;;;;;5030510;28;20273;-69
2024/01/05 08:48:15;;;;;;;0.90;0.90;;;-16.20;99.90;;;;;;5030491;28;20285;-68
2024/01/05 08:50:41;;;;;;;0.90;0.90;;;-16.20;99.90;;;;;;5030567;28;20232;-68
2024/01/05 08:53:08;;;;;;;0.90;0.90;;;-16.30;99.90;;;;;;5011236;28;20194;-68
2024/01/05 08:55:35;;;;;;;0.90;0.90;;;-16.30;99.90;;;;;;5010364;28;20194;-68
2024/01/05 08:58:02;;;;;;;0.90;0.90;;;-16.40;99.90;;;;;;5010662;28;20579;-69
2024/01/05 09:00:28;;;;;;;0.90;0.90;;;-16.40;99.90;;;;;;5010670;28;20229;-69
2024/01/05 09:02:55;;;;;;;0.90;0.90;;;-16.30;99.90;;;;;;5014379;28;20209;-69
2024/01/05 09:05:21;;;;;;;0.90;0.90;;;-16.30;99.90;;;;;;5014233;28;20195;-68
2024/01/05 09:07:47;;;;;;;0.87;0.87;;;-16.20;99.90;;;;;;5014403;28;20206;-69
2024/01/05 09:10:13;;;;;;;0.80;0.80;;;-16.20;99.90;;;;;;5014148;28;20571;-68
2024/01/05 09:12:39;;;;;;;1.00;1.00;;;-16.20;99.90;;;;;;5014100;28;20206;-68
2024/01/05 09:15:06;;;;;;;1.00;1.00;;;-16.20;99.90;;;;;;5014066;28;20202;-68
2024/01/05 09:17:32;;;;;;;0.97;0.97;;;-16.20;99.90;;;;;;5027545;28;20693;-67
2024/01/05 09:19:58;;;;;;;0.90;0.90;;;-16.20;99.90;;;;;;5034044;28;20194;-68
2024/01/05 09:22:23;;;;;;;1.10;1.10;;;-16.20;99.90;;;;;;5015958;28;20197;-67
2024/01/05 09:24:49;;;;;;;0.90;0.90;;;-16.20;99.90;;;;;;5032955;28;20399;-67
2024/01/05 09:27:15;;;;;;;0.90;0.90;;;-16.20;99.90;;;;;;5033909;28;20209;-68
2024/01/05 09:29:40;;;;;;;0.90;0.90;;;-16.20;99.90;;;;;;5032395;28;20236;-68
2024/01/05 09:32:06;;;;;;;1.00;1.00;;;-16.20;99.90;;;;;;5033831;28;20352;-68
2024/01/05 09:34:32;;;;;;;0.90;0.90;;;-16.20;99.90;;;;;;5033428;28;20637;-67
2024/01/05 09:36:57;;;;;;;1.00;1.00;;;-16.20;99.90;;;;;;5033746;28;20213;-68
2024/01/05 09:39:23;;;;;;;0.87;0.87;;;-16.20;99.90;;;;;;5033444;28;20221;-68
2024/01/05 09:41:49;;;;;;;0.80;0.80;;;-16.10;99.90;;;;;;5033587;28;20677;-68
2024/01/05 09:44:16;;;;;;;0.90;0.90;;;-16.20;99.90;;;;;;5033407;28;20202;-68
2024/01/05 09:46:43;;;;;;;0.87;0.87;;;-16.10;99.90;;;;;;5033471;28;20194;-67
2024/01/05 09:49:10;;;;;;;0.80;0.80;;;-16.10;99.90;;;;;;5015824;28;20207;-67
2024/01/05 09:51:36;;;;;;;0.90;0.90;;;-16.00;99.90;;;;;;5013454;28;20203;-68
2024/01/05 09:54:02;;;;;;;0.90;0.90;;;-16.00;99.90;;;;;;5012163;28;20195;-68
2024/01/05 09:56:28;;;;;;;0.90;0.90;;;-16.00;99.90;;;;;;5013269;28;20724;-68
2024/01/05 09:58:55;;;;;;;0.90;0.90;;;-16.00;99.90;;;;;;5013555;28;20191;-68
2024/01/05 10:01:25;;;;;;;0.83;0.83;;;-16.00;99.90;;;;;;5013188;28;20187;-68
2024/01/05 10:04:03;;;;;;;0.90;0.90;;;-15.90;99.90;;;;;;5013434;28;20202;-68
2024/01/05 10:06:30;;;;;;;0.90;0.90;;;-15.90;99.90;;;;;;5011505;28;20209;-69
2024/01/05 10:08:58;;;;;;;0.90;0.90;;;-15.90;99.90;;;;;;5013127;28;20662;-68
2024/01/05 10:11:30;;;;;;;1.00;1.00;;;-15.80;99.90;;;;;;5011462;28;20210;-68
2024/01/05 10:14:00;;;;;;;0.90;0.90;;;-15.80;99.90;;;;;;5010567;28;20246;-68
2024/01/05 10:16:33;;;;;;;0.90;0.90;;;-15.80;99.90;;;;;;5012560;28;20254;-67
2024/01/05 10:19:28;;;;;;;1.00;1.00;;;-15.80;99.90;;;;;;5013181;28;20187;-68
2024/01/05 10:21:54;;;;;;;0.90;0.90;;;-15.80;99.90;;;;;;5004237;28;20242;-69
2024/01/05 10:24:27;;;;;;;0.90;0.90;;;-15.70;99.90;;;;;;5013046;28;20223;-70
2024/01/05 10:27:04;;;;;;;0.90;0.90;;;-15.70;99.90;;;;;;5012922;28;20201;-69
2024/01/05 10:29:53;;;;;;;0.80;0.80;;;-15.60;99.90;;;;;;5012705;28;20198;-70
2024/01/05 10:32:21;;;;;;;0.87;0.87;;;-15.60;99.90;;;;;;4994593;28;20203;-69
2024/01/05 10:34:48;;;;;;;0.87;0.87;;;-15.50;99.90;;;;;;5012702;28;20734;-70
2024/01/05 10:37:19;;;;;;;0.80;0.80;;;-15.40;99.90;;;;;;5012712;28;20265;-69
2024/01/05 10:39:45;;;;;;;0.90;0.90;;;-15.40;99.90;;;;;;5012846;28;20191;-70
2024/01/05 10:42:18;;;;;;;0.90;0.90;;;-15.30;99.90;;;;;;5012675;28;20712;-69
2024/01/05 10:44:47;;;;;;;0.80;0.80;;;-15.30;99.90;;;;;;5012232;28;20194;-70
2024/01/05 10:47:18;;;;;;;0.90;0.90;;;-15.20;99.90;;;;;;5011611;28;20203;-71
2024/01/05 10:49:51;;;;;;;0.90;0.90;;;-15.20;99.90;;;;;;5011564;28;20246;-70
2024/01/05 10:52:22;;;;;;;0.90;0.90;;;-15.20;99.90;;;;;;5012533;28;20608;-68
2024/01/05 10:54:51;;;;;;;0.90;0.90;;;-15.10;99.90;;;;;;5012421;28;20195;-69
2024/01/05 10:57:18;;;;;;;0.90;0.90;;;-15.10;99.90;;;;;;5012197;28;20636;-69
2024/01/05 10:59:48;;;;;;;0.90;0.90;;;-15.00;99.90;;;;;;5012335;28;20190;-70
2024/01/05 11:02:40;;;;;;;0.70;0.70;;;-15.00;99.90;;;;;;5010523;28;20269;-68
2024/01/05 11:05:08;;;;;;;0.90;0.90;;;-14.90;99.90;;;;;;4994633;28;20209;-68
2024/01/05 11:07:34;;;;;;;0.90;0.90;;;-15.00;99.90;;;;;;5012197;28;20261;-68
2024/01/05 11:10:34;;;;;;;0.90;0.90;;;-14.90;99.90;;;;;;5011863;28;20203;-68
2024/01/05 11:13:30;;;;;;;0.90;0.90;;;-14.90;99.90;;;;;;4992317;28;20279;-68
2024/01/05 11:16:07;;;;;;;1.00;1.00;;;-14.90;99.90;;;;;;4992031;28;20195;-67
2024/01/05 11:19:00;;;;;;;0.90;0.90;;;-14.90;99.90;;;;;;4992442;28;20198;-67
2024/01/05 11:21:36;;;;;;;0.90;0.90;;;-15.00;99.90;;;;;;4992177;28;20701;-67
2024/01/05 11:24:02;;;;;;;0.90;0.90;;;-15.00;99.90;;;;;;4991971;28;20725;-67
2024/01/05 11:26:42;;;;;;;0.97;0.97;;;-15.00;99.90;;;;;;4992006;28;20626;-68
2024/01/05 11:29:14;;;;;;;0.90;0.90;;;-15.10;99.90;;;;;;4990891;28;20199;-67
2024/01/05 11:31:46;;;;;;;0.90;0.90;;;-15.00;99.90;;;;;;4991929;28;20200;-67
2024/01/05 11:34:34;;;;;;;0.90;0.90;;;-15.00;99.90;;;;;;4991927;28;20695;-66
2024/01/05 11:37:01;;;;;;;1.00;1.00;;;-15.00;99.90;;;;;;4990623;28;20215;-66
2024/01/05 11:39:44;;;;;;;0.90;0.90;;;-15.10;99.90;;;;;;4991843;28;20198;-67
2024/01/05 11:42:33;;;;;;;1.00;1.00;;;-15.00;99.90;;;;;;4991802;28;20219;-67
2024/01/05 11:45:03;;;;;;;0.87;0.87;;;-15.00;99.90;;;;;;4991927;28;20191;-67
2024/01/05 11:47:45;;;;;;;0.90;0.90;;;-15.00;99.90;;;;;;4995094;28;20195;-68
2024/01/05 11:50:33;;;;;;;0.90;0.90;;;-15.00;99.90;;;;;;5011490;28;20269;-67
2024/01/05 11:53:27;;;;;;;0.90;0.90;;;-15.00;99.90;;;;;;5011226;28;20190;-68
2024/01/05 11:55:58;;;;;;;0.80;0.80;;;-15.00;99.90;;;;;;4991827;28;20581;-68
2024/01/05 11:58:31;;;;;;;0.87;0.87;;;-15.10;99.90;;;;;;5011358;28;20211;-68
2024/01/05 12:00:59;;;;;;;0.90;0.90;;;-15.10;99.90;;;;;;5009978;28;20202;-68
2024/01/05 12:03:25;;;;;;;0.90;0.90;;;-15.10;99.90;;;;;;5011038;28;20225;-68
2024/01/05 12:05:55;;;;;;;0.90;0.90;;;-15.20;99.90;;;;;;5011154;28;20203;-68
2024/01/05 12:08:21;;;;;;;1.40;1.30;;;-15.10;99.90;;;;;;5010991;28;20564;-68
2024/01/05 12:11:10;;;;;;;2.20;1.67;;;-15.10;99.90;;;;;;5011143;28;20221;-68
2024/01/05 12:13:37;;;;;;;0.83;0.83;;;-15.00;99.90;;;;;;5011073;28;20294;-68
2024/01/05 12:16:05;;;;;;;1.00;1.00;;;-15.00;99.90;;;;;;5010987;28;20337;-68
2024/01/05 12:18:32;;;;;;;0.90;0.90;;;-15.00;99.90;;;;;;5011000;28;20198;-68
2024/01/05 12:21:02;;;;;;;0.90;0.90;;;-15.00;99.90;;;;;;5011082;28;20282;-68
2024/01/05 12:23:30;;;;;;;0.90;0.90;;;-15.00;99.90;;;;;;5010730;28;20642;-68
2024/01/05 12:26:14;;;;;;;0.90;0.90;;;-15.00;99.90;;;;;;5010986;28;20191;-68
2024/01/05 12:28:41;;;;;;;0.90;0.90;;;-15.10;99.90;;;;;;5010850;28;20199;-69
2024/01/05 12:31:07;;;;;;;0.90;0.90;;;-15.00;99.90;;;;;;5010976;28;20191;-68
2024/01/05 12:33:39;;;;;;;0.90;0.90;;;-15.10;99.90;;;;;;5010961;28;20208;-68
2024/01/05 12:36:09;;;;;;;0.90;0.90;;;-15.20;99.90;;;;;;5011785;28;20222;-69
2024/01/05 12:38:35;;;;;;;0.90;0.90;;;-15.20;99.90;;;;;;5013049;28;20203;-69